createdAt,value
2022-09-22T00:01:44.258Z,1019.58
2022-09-22T00:06:45.424Z,1019.61
2022-09-22T00:11:46.640Z,1019.58
2022-09-22T00:16:47.811Z,1019.53
2022-09-22T00:21:48.995Z,1019.55
2022-09-22T00:26:50.166Z,1019.61
2022-09-22T00:31:51.407Z,1019.64
2022-09-22T00:36:52.618Z,1019.59
2022-09-22T00:41:53.791Z,1019.51
2022-09-22T00:46:55.026Z,1019.47
2022-09-22T00:51:56.329Z,1019.40
2022-09-22T00:56:57.482Z,1019.30
2022-09-22T01:01:58.722Z,1019.23
2022-09-22T01:07:00.018Z,1019.26
2022-09-22T01:12:00.316Z,1019.19
2022-09-22T01:17:01.474Z,1019.08
2022-09-22T01:22:02.695Z,1019.10
2022-09-22T01:27:03.870Z,1019.12
2022-09-22T01:32:05.117Z,1019.10
2022-09-22T01:37:06.389Z,1019.11
2022-09-22T01:42:07.555Z,1019.06
2022-09-22T01:47:08.804Z,1019.03
2022-09-22T01:52:09.972Z,1018.94
2022-09-22T01:57:11.151Z,1018.85
2022-09-22T02:02:12.449Z,1018.80
2022-09-22T02:07:13.723Z,1018.77
2022-09-22T02:12:14.941Z,1018.77
2022-09-22T02:17:16.124Z,1018.76
2022-09-22T02:22:17.342Z,1018.66
2022-09-22T02:27:18.536Z,1018.67
2022-09-22T02:32:19.749Z,1018.60
2022-09-22T02:37:21.021Z,1018.64
2022-09-22T02:42:22.299Z,1018.62
2022-09-22T02:47:23.568Z,1018.65
2022-09-22T02:52:25.109Z,1018.59
2022-09-22T02:57:24.284Z,1018.56
2022-09-22T03:02:25.457Z,1018.63
2022-09-22T03:07:26.644Z,1018.77
2022-09-22T03:12:27.848Z,1018.76
2022-09-22T03:17:29.015Z,1018.74
2022-09-22T03:22:30.175Z,1018.78
2022-09-22T03:27:32.319Z,1018.87
2022-09-22T03:32:31.464Z,1018.94
2022-09-22T03:37:32.675Z,1018.92
2022-09-22T03:42:33.899Z,1018.96
2022-09-22T03:47:35.055Z,1019.08
2022-09-22T03:52:37.240Z,1019.00
2022-09-22T03:57:36.387Z,1019.03
2022-09-22T04:02:37.579Z,1019.04
2022-09-22T04:07:38.815Z,1019.14
2022-09-22T04:12:40.007Z,1019.16
2022-09-22T04:17:41.233Z,1019.16
2022-09-22T04:22:42.414Z,1019.26
2022-09-22T04:27:43.575Z,1019.26
2022-09-22T04:32:44.779Z,1019.19
2022-09-22T04:37:46.072Z,1019.24
2022-09-22T04:42:47.283Z,1019.19
2022-09-22T04:47:48.511Z,1019.33
2022-09-22T04:52:50.025Z,1019.41
2022-09-22T04:57:49.197Z,1019.44
2022-09-22T05:02:50.422Z,1019.48
2022-09-22T05:07:52.897Z,1019.53
2022-09-22T05:12:52.091Z,1019.53
2022-09-22T05:17:53.260Z,1019.44
2022-09-22T05:22:54.415Z,1019.47
2022-09-22T05:27:55.631Z,1019.48
2022-09-22T05:32:56.865Z,1019.52
2022-09-22T05:37:58.031Z,1019.55
2022-09-22T05:42:59.169Z,1019.60
2022-09-22T05:48:00.381Z,1019.53
2022-09-22T05:53:01.656Z,1019.49
2022-09-22T05:58:02.869Z,1019.51
2022-09-22T06:03:04.056Z,1019.57
2022-09-22T06:08:05.265Z,1019.56
2022-09-22T06:13:06.424Z,1019.58
2022-09-22T06:18:07.758Z,1019.49
2022-09-22T06:23:09.011Z,1019.56
2022-09-22T06:28:10.224Z,1019.54
2022-09-22T06:33:11.324Z,1019.48
2022-09-22T06:38:13.422Z,1019.48
2022-09-22T06:43:12.593Z,1019.44
2022-09-22T06:48:14.704Z,1019.44
2022-09-22T06:53:15.833Z,1019.45
2022-09-22T06:58:15.035Z,1019.52
2022-09-22T07:03:15.125Z,1019.49
2022-09-22T07:08:16.220Z,1019.42
2022-09-22T07:13:18.316Z,1019.40
2022-09-22T07:18:17.538Z,1019.33
2022-09-22T07:23:19.533Z,1019.30
2022-09-22T07:28:18.672Z,1019.33
2022-09-22T07:33:19.788Z,1019.27
2022-09-22T07:38:24.864Z,1019.31
2022-09-22T07:43:23.983Z,1019.27
2022-09-22T07:48:23.096Z,1019.22
2022-09-22T07:53:24.357Z,1019.18
2022-09-22T07:58:26.593Z,1019.17
2022-09-22T08:03:25.684Z,1019.10
2022-09-22T08:08:26.842Z,1019.09
2022-09-22T08:13:28.018Z,1019.10
2022-09-22T08:18:29.153Z,1019.06
2022-09-22T08:23:30.240Z,1019.10
2022-09-22T08:28:31.327Z,1018.96
2022-09-22T08:33:33.452Z,1019.01
2022-09-22T08:38:32.599Z,1018.90
2022-09-22T08:43:33.683Z,1018.98
2022-09-22T08:48:34.856Z,1018.95
2022-09-22T08:53:36.954Z,1018.90
2022-09-22T08:58:36.045Z,1018.91
2022-09-22T09:03:37.135Z,1018.89
2022-09-22T09:08:39.302Z,1018.94
2022-09-22T09:13:38.553Z,1018.89
2022-09-22T09:18:40.873Z,1018.97
2022-09-22T09:28:40.997Z,1019.01
2022-09-22T09:33:40.087Z,1018.84
2022-09-22T09:38:41.280Z,1018.85
2022-09-22T09:43:42.549Z,1018.81
2022-09-22T09:48:43.636Z,1018.78
2022-09-22T09:53:44.800Z,1018.74
2022-09-22T09:58:46.884Z,1018.69
2022-09-22T10:03:46.077Z,1018.59
2022-09-22T10:08:49.175Z,1018.54
2022-09-22T10:13:48.275Z,1018.52
2022-09-22T10:18:49.459Z,1018.44
2022-09-22T10:23:50.598Z,1018.39
2022-09-22T10:28:51.784Z,1018.34
2022-09-22T10:33:53.013Z,1018.33
2022-09-22T10:38:57.344Z,1018.27
2022-09-22T10:43:54.092Z,1018.20
2022-09-22T10:48:55.325Z,1018.17
2022-09-22T10:53:56.461Z,1018.12
2022-09-22T10:58:57.644Z,1018.19
2022-09-22T11:03:58.804Z,1018.14
2022-09-22T11:08:59.954Z,1018.14
2022-09-22T11:14:00.078Z,1018.09
2022-09-22T11:19:01.248Z,1018.04
2022-09-22T11:24:02.502Z,1017.97
2022-09-22T11:29:04.606Z,1017.97
2022-09-22T11:34:03.779Z,1017.85
2022-09-22T11:39:04.928Z,1017.91
2022-09-22T11:44:08.160Z,1017.78
2022-09-22T11:49:07.414Z,1017.76
2022-09-22T11:54:09.525Z,1017.75
2022-09-22T11:59:08.672Z,1017.65
2022-09-22T12:04:09.758Z,1017.67
2022-09-22T12:09:10.842Z,1017.67
2022-09-22T12:14:12.007Z,1017.62
2022-09-22T12:19:13.166Z,1017.58
2022-09-22T12:24:14.259Z,1017.60
2022-09-22T12:29:16.699Z,1017.47
2022-09-22T12:34:15.788Z,1017.46
2022-09-22T12:39:16.916Z,1017.43
2022-09-22T12:44:21.026Z,1017.44
2022-09-22T12:49:18.175Z,1017.38
2022-09-22T12:54:19.271Z,1017.36
2022-09-22T12:59:20.438Z,1017.26
2022-09-22T13:04:21.517Z,1017.18
2022-09-22T13:09:22.610Z,1017.22
2022-09-22T13:14:24.700Z,1017.12
2022-09-22T13:19:23.813Z,1017.10
2022-09-22T13:24:27.359Z,1017.06
2022-09-22T13:29:25.766Z,1017.06
2022-09-22T13:34:24.895Z,1017.00
2022-09-22T13:39:26.103Z,1017.04
2022-09-22T13:44:27.300Z,1016.89
2022-09-22T13:49:28.410Z,1016.84
2022-09-22T13:54:29.523Z,1016.79
2022-09-22T13:59:30.715Z,1016.78
2022-09-22T14:04:31.907Z,1016.74
2022-09-22T14:09:33.026Z,1016.74
2022-09-22T14:14:34.192Z,1016.74
2022-09-22T14:19:35.363Z,1016.70
2022-09-22T14:24:39.559Z,1016.70
2022-09-22T14:29:36.726Z,1016.66
2022-09-22T14:34:38.816Z,1016.64
2022-09-22T14:39:40.922Z,1016.57
2022-09-22T14:44:38.023Z,1016.59
2022-09-22T14:49:40.182Z,1016.54
2022-09-22T14:54:39.408Z,1016.49
2022-09-22T14:59:40.516Z,1016.48
2022-09-22T15:04:41.651Z,1016.53
2022-09-22T15:09:44.541Z,1016.48
2022-09-22T15:14:43.760Z,1016.42
2022-09-22T15:19:45.042Z,1016.41
2022-09-22T15:24:46.205Z,1016.50
2022-09-22T15:29:48.309Z,1016.46
2022-09-22T15:34:48.408Z,1016.48
2022-09-22T15:39:47.616Z,1016.45
2022-09-22T15:44:48.965Z,1016.47
2022-09-22T15:49:50.152Z,1016.48
2022-09-22T15:54:52.243Z,1016.44
2022-09-22T15:59:52.334Z,1016.40
2022-09-22T16:04:51.423Z,1016.45
2022-09-22T16:09:53.520Z,1016.41
2022-09-22T16:14:52.623Z,1016.42
2022-09-22T16:19:54.738Z,1016.46
2022-09-22T16:24:53.949Z,1016.44
2022-09-22T16:29:55.233Z,1016.44
2022-09-22T16:34:57.342Z,1016.40
2022-09-22T16:39:56.477Z,1016.38
2022-09-22T16:44:58.734Z,1016.36
2022-09-22T16:49:58.223Z,1016.35
2022-09-22T16:54:57.695Z,1016.38
2022-09-22T16:59:58.814Z,1016.40
2022-09-22T17:04:59.945Z,1016.33
2022-09-22T17:10:01.052Z,1016.39
2022-09-22T17:15:02.182Z,1016.42
2022-09-22T17:20:03.371Z,1016.44
2022-09-22T17:25:04.542Z,1016.46
2022-09-22T17:30:05.702Z,1016.46
2022-09-22T17:35:06.969Z,1016.50
2022-09-22T17:40:08.157Z,1016.49
2022-09-22T17:45:09.395Z,1016.57
2022-09-22T17:50:10.729Z,1016.60
2022-09-22T17:55:11.936Z,1016.64
2022-09-22T18:00:13.154Z,1016.64
2022-09-22T18:05:15.261Z,1016.65
2022-09-22T18:10:19.447Z,1016.63
2022-09-22T18:15:14.601Z,1016.72
2022-09-22T18:20:15.809Z,1016.72
2022-09-22T18:25:17.078Z,1016.77
2022-09-22T18:30:18.226Z,1016.77
2022-09-22T18:35:20.331Z,1016.76
2022-09-22T18:40:19.455Z,1016.80
2022-09-22T18:45:20.604Z,1016.91
2022-09-22T18:50:21.924Z,1016.93
2022-09-22T18:55:25.121Z,1017.06
2022-09-22T19:00:26.303Z,1017.10
2022-09-22T19:05:25.394Z,1017.09
2022-09-22T19:10:26.501Z,1017.12
2022-09-22T19:15:27.660Z,1017.15
2022-09-22T19:20:29.852Z,1017.18
2022-09-22T19:25:29.005Z,1017.16
2022-09-22T19:30:31.733Z,1017.13
2022-09-22T19:35:34.947Z,1017.11
2022-09-22T19:40:32.106Z,1017.09
2022-09-22T19:45:34.478Z,1017.10
2022-09-22T19:50:33.703Z,1017.07
2022-09-22T19:55:36.841Z,1017.11
2022-09-22T20:00:37.433Z,1017.11
2022-09-22T20:05:37.531Z,1017.06
2022-09-22T20:10:37.629Z,1017.06
2022-09-22T20:15:36.742Z,1017.08
2022-09-22T20:20:51.106Z,1017.07
2022-09-22T20:25:40.303Z,1017.08
2022-09-22T20:30:39.535Z,1017.11
2022-09-22T20:35:40.715Z,1017.01
2022-09-22T20:40:41.972Z,1017.05
2022-09-22T20:45:43.128Z,1017.00
2022-09-22T20:50:44.255Z,1017.04
2022-09-22T20:55:45.545Z,1016.98
2022-09-22T21:00:48.667Z,1017.00
2022-09-22T21:05:48.819Z,1017.07
2022-09-22T21:10:48.974Z,1017.00
2022-09-22T21:15:49.150Z,1016.97
2022-09-22T21:20:49.265Z,1016.96
2022-09-22T21:25:50.417Z,1016.93
2022-09-22T21:30:49.584Z,1016.92
2022-09-22T21:35:50.776Z,1016.92
2022-09-22T21:40:51.988Z,1016.92
2022-09-22T21:45:53.271Z,1016.90
2022-09-22T21:50:54.396Z,1016.85
2022-09-22T21:55:56.594Z,1016.84
2022-09-22T22:00:55.744Z,1016.85
2022-09-22T22:05:57.036Z,1016.79
2022-09-22T22:10:58.654Z,1016.78
2022-09-22T22:15:58.810Z,1016.81
2022-09-22T22:20:57.898Z,1016.76
2022-09-22T22:25:59.165Z,1016.75
2022-09-22T22:31:00.410Z,1016.72
2022-09-22T22:36:01.841Z,1016.78
2022-09-22T22:41:03.971Z,1016.81
2022-09-22T22:46:04.140Z,1016.75
2022-09-22T22:51:07.250Z,1016.78
2022-09-22T22:56:04.521Z,1016.84
2022-09-22T23:01:06.739Z,1016.83
2022-09-22T23:06:05.894Z,1016.75
2022-09-22T23:11:07.127Z,1016.81
2022-09-22T23:16:09.287Z,1016.77
2022-09-22T23:21:09.446Z,1016.72
2022-09-22T23:26:08.537Z,1016.71
2022-09-22T23:31:10.682Z,1016.71
2022-09-22T23:36:12.288Z,1016.69
2022-09-22T23:41:09.379Z,1016.66
2022-09-22T23:46:11.537Z,1016.66
2022-09-22T23:51:10.630Z,1016.70
2022-09-22T23:56:13.727Z,1016.74
